Aérodrome :
LOGIN :

S'inscrire | Disclaimer

   EN    FR    IT 

 










Légende :    VFR   VFR Marginal   IFR   IFR Intensif   IFR Très Intensif
Visi : 
Plafond : 
>= 8 km
>= 3000ft
5 à 8 km
1000 à 3000 ft
1500m à 5 km
500 à 1000 ft
800 à 1500m
200 à 500 ft
< 800m
< 200 ft
Symboles :   Orages  Brouillard  Fortes neiges  Fortes précipitations  Vent > 20 kt
SIGMETs :   Divers  Orages  Givrage  Turbulence  Onde Orograph.  Cendres Volcan.







- Altitude de l'aérodrome : 779 ft
- Code IATA : CMF
- Voir les cartes d'approche


LFLB - Chambery / Aix-Les-Bains

DERNIER METAR :
  • 130630Z AUTO 33005KT 280V360 9000 OVC088 M02/M03 Q1014 TEMPO 3000 BR

METARs EXPIRÉS :
  • 130600Z AUTO VRB02KT 9000 OVC086 M03/M04 Q1014 TEMPO 3000 BR
  • 130530Z AUTO 34005KT 9999 OVC084 M02/M04 Q1014
  • 130500Z AUTO VRB02KT 7000 OVC082 M04/M04 Q1014
  • 130430Z AUTO VRB02KT 6000 BKN082 M05/M05 Q1014
  • 130400Z AUTO VRB01KT 6000 SCT080 M05/M06 Q1014
  • 130330Z AUTO VRB02KT 6000 NSC M05/M06 Q1015

TAF TAF LFLB
Valide du 13 à 06h jusqu'au 14 à 06h UTC


130500Z 1306/1406 35009KT CAVOK
PROB40
TEMPO 1306/1310 VRB02KT 3000 BR
BECMG 1314/1316 BKN050
TEMPO 1402/1406 3000 BR
PROB40
TEMPO 1402/1406 0500 FG OVC005
Pas de NOTAMs connus pour ce terrain.



MET'MAP, la Météo Aéronautique d'un coup d'oeil ! - Copyright ORBIFLY Décembre 2007 - Disclaimer

ORBIFLY MET'MAP TEAM :

Programmation & Développement : Alexandra Zaïnal
Conception & Développement : Baudouin d'Aumeries
Co-Programmation & Développement : Marc-Olivier Méhu
Soutien technique & logistique : Manuel Goepfert

Contact : metmap@orbifly.com




SOURCES & CREDITS :

   NOAA